Time;durP1;ratioP1;P1;durP2;ratioP2;P2;SDS_P1;SDS_P2;PMS_P1;PMS_P2;Temp;Humidity;BMP_temperature;BMP_pressure;BME280_temperature;BME280_humidity;BME280_pressure;Samples;Min_cycle;Max_cycle;Signal;HPM_P1;HPM_P2
2023/03/15 00:00:24;;;;;;;0.97;0.97;;;;;;;-145.69;100.00;52565.19;5115826;28;20208;-84
2023/03/15 00:02:50;;;;;;;1.70;1.20;;;;;;;-145.69;100.00;52547.38;5117842;28;20287;-84
2023/03/15 00:05:17;;;;;;;2.00;1.33;;;;;;;-145.69;100.00;52519.63;5116297;28;20204;-83
2023/03/15 00:07:45;;;;;;;2.83;1.50;;;;;;;-145.69;100.00;52553.31;5115278;28;20208;-84
2023/03/15 00:10:12;;;;;;;3.17;1.60;;;;;;;-145.69;100.00;52551.31;5118332;28;20229;-85
2023/03/15 00:12:38;;;;;;;2.97;2.17;;;;;;;-145.69;100.00;52529.53;5119924;28;20293;-85
2023/03/15 00:15:06;;;;;;;6.50;2.17;;;;;;;-145.69;100.00;52539.44;5120916;28;20205;-85
2023/03/15 00:17:33;;;;;;;3.90;2.40;;;;;;;-145.69;100.00;52555.28;5120529;28;20518;-85
2023/03/15 00:20:00;;;;;;;4.43;1.87;;;;;;;-145.69;100.00;52567.16;5118088;28;20600;-86
2023/03/15 00:22:26;;;;;;;3.47;1.87;;;;;;;-145.69;100.00;52543.41;5118793;28;20229;-86
2023/03/15 00:24:54;;;;;;;5.70;1.77;;;;;;;-145.69;100.00;52521.63;5120408;28;20667;-87
2023/03/15 00:27:21;;;;;;;5.53;2.00;;;;;;;-145.69;100.00;52555.28;5120752;28;20288;-86
2023/03/15 00:29:47;;;;;;;1.90;1.50;;;;;;;-145.69;100.00;52581.03;5120375;28;20374;-86
2023/03/15 00:32:14;;;;;;;6.47;1.93;;;;;;;-145.69;100.00;52529.53;5119855;28;20221;-86
2023/03/15 00:34:41;;;;;;;1.93;1.40;;;;;;;-145.69;100.00;52571.13;5118594;28;20201;-86
2023/03/15 00:37:10;;;;;;;2.10;1.77;;;;;;;-145.69;100.00;52559.25;5119537;28;20212;-85
2023/03/15 00:39:38;;;;;;;4.23;2.20;;;;;;;-145.69;100.00;52569.16;5121617;28;20198;-86
2023/03/15 00:42:06;;;;;;;5.63;1.90;;;;;;;-145.69;100.00;52537.47;5116809;28;20229;-86
2023/03/15 00:44:33;;;;;;;4.33;2.40;;;;;;;-145.69;100.00;52586.97;5119370;28;20205;-86
2023/03/15 00:46:59;;;;;;;4.97;2.00;;;;;;;-145.69;100.00;52529.53;5117779;28;20647;-87
2023/03/15 00:49:26;;;;;;;4.50;2.30;;;;;;;-145.69;100.00;52590.94;5117716;28;20197;-86
2023/03/15 00:51:54;;;;;;;3.87;2.07;;;;;;;-145.69;100.00;52561.22;5115629;28;20229;-85
2023/03/15 00:54:23;;;;;;;4.40;1.90;;;;;;;-145.69;100.00;52571.13;5118044;28;20625;-86
2023/03/15 00:56:50;;;;;;;4.73;1.97;;;;;;;-145.69;100.00;52513.69;5117671;28;20225;-85
2023/03/15 00:59:18;;;;;;;4.67;1.67;;;;;;;-145.69;100.00;52547.38;5114931;28;20227;-85
2023/03/15 01:01:44;;;;;;;3.03;2.00;;;;;;;-145.69;100.00;52545.38;5116432;28;20203;-86
2023/03/15 01:04:11;;;;;;;2.70;2.00;;;;;;;-145.69;100.00;52513.69;5117382;28;20208;-86
2023/03/15 01:06:39;;;;;;;3.77;2.07;;;;;;;-145.69;100.00;52533.50;5115429;28;20198;-85
2023/03/15 01:09:05;;;;;;;2.00;1.60;;;;;;;-145.69;100.00;52553.31;5114555;28;20279;-84
2023/03/15 01:11:32;;;;;;;4.10;1.50;;;;;;;-145.69;100.00;52545.38;5113635;28;20656;-85
2023/03/15 01:13:59;;;;;;;4.07;1.60;;;;;;;-145.69;100.00;52535.47;5115091;28;20559;-85
2023/03/15 01:16:28;;;;;;;3.17;1.63;;;;;;;-145.69;100.00;52561.22;5110878;28;20199;-85
2023/03/15 01:18:55;;;;;;;6.07;2.10;;;;;;;-145.69;100.00;52585.00;5115712;28;20547;-86
2023/03/15 01:21:23;;;;;;;4.73;2.03;;;;;;;-145.69;100.00;52551.31;5116423;28;20690;-85
2023/03/15 01:23:50;;;;;;;6.63;1.80;;;;;;;-145.69;100.00;52523.59;5115304;28;20205;-85
2023/03/15 01:26:18;;;;;;;2.77;1.80;;;;;;;-145.69;100.00;52571.13;5114929;28;20243;-86
2023/03/15 01:28:47;;;;;;;5.23;1.80;;;;;;;-145.69;100.00;52547.38;5114881;28;20703;-85
2023/03/15 01:31:18;;;;;;;11.87;2.13;;;;;;;-145.69;100.00;52579.06;5115145;28;20233;-85
2023/03/15 01:33:46;;;;;;;4.40;1.73;;;;;;;-145.69;100.00;52535.47;5114608;28;20197;-85
2023/03/15 01:36:13;;;;;;;1.67;1.37;;;;;;;-145.69;100.00;52539.44;5114807;28;20288;-85
2023/03/15 01:38:40;;;;;;;4.53;1.50;;;;;;;-145.69;100.00;52557.28;5115323;28;20193;-85
2023/03/15 01:41:07;;;;;;;6.57;1.50;;;;;;;-145.69;100.00;52535.47;5118837;28;20212;-83
2023/03/15 01:43:34;;;;;;;4.30;1.63;;;;;;;-145.69;100.00;52586.97;5118535;28;20301;-85
2023/03/15 01:46:23;;;;;;;5.87;1.90;;;;;;;-145.69;100.00;52541.44;5121693;28;20197;-85
2023/03/15 01:48:55;;;;;;;5.83;1.83;;;;;;;-145.69;100.00;52545.38;5121469;28;20648;-85
2023/03/15 01:51:26;;;;;;;3.50;1.80;;;;;;;-145.69;100.00;52555.28;5103901;28;20324;-85
2023/03/15 01:53:58;;;;;;;3.87;1.80;;;;;;;-145.69;100.00;52575.09;5119912;28;20197;-86
2023/03/15 01:56:27;;;;;;;4.60;2.00;;;;;;;-145.69;100.00;52551.31;5124664;28;20201;-87
2023/03/15 01:59:00;;;;;;;7.17;2.63;;;;;;;-145.69;100.00;52559.25;5103989;28;20190;-86
2023/03/15 02:01:27;;;;;;;7.10;2.57;;;;;;;-145.69;100.00;52531.53;5119648;28;20197;-87
2023/03/15 02:04:04;;;;;;;7.77;2.27;;;;;;;-145.69;100.00;52551.31;5124232;28;20201;-86
2023/03/15 02:06:33;;;;;;;4.77;2.30;;;;;;;-145.69;100.00;52551.31;5118547;28;20304;-86
2023/03/15 02:09:06;;;;;;;3.33;1.97;;;;;;;-145.69;100.00;52579.06;5118668;28;20202;-86
2023/03/15 02:11:34;;;;;;;6.43;2.30;;;;;;;-145.69;100.00;52545.38;5123131;28;20225;-86
2023/03/15 02:14:02;;;;;;;6.07;2.47;;;;;;;-145.69;100.00;52543.41;5123053;28;20197;-85
2023/03/15 02:16:30;;;;;;;3.73;2.50;;;;;;;-145.69;100.00;52557.28;5124070;28;20204;-85
2023/03/15 02:18:58;;;;;;;3.90;2.40;;;;;;;-145.69;100.00;52594.91;5126268;28;20197;-86
2023/03/15 02:21:35;;;;;;;4.87;2.10;;;;;;;-145.69;100.00;52545.38;5122904;28;20201;-85
2023/03/15 02:24:15;;;;;;;10.93;2.80;;;;;;;-145.69;100.00;52571.13;5126647;28;20207;-86
2023/03/15 02:26:45;;;;;;;8.10;2.67;;;;;;;-145.69;100.00;52573.13;5131261;28;20764;-86
2023/03/15 02:29:13;;;;;;;3.17;2.07;;;;;;;-145.69;100.00;52569.16;5126046;28;20273;-85
2023/03/15 02:31:40;;;;;;;12.83;2.90;;;;;;;-145.69;100.00;52545.38;5126719;28;20266;-86
2023/03/15 02:34:10;;;;;;;7.27;2.73;;;;;;;-145.69;100.00;52539.44;5128039;28;20202;-86
2023/03/15 02:36:45;;;;;;;7.67;2.93;;;;;;;-145.69;100.00;52521.63;5131008;28;20201;-86
2023/03/15 02:39:17;;;;;;;12.40;2.70;;;;;;;-145.69;100.00;52579.06;5131213;28;20207;-85
2023/03/15 02:41:48;;;;;;;4.60;2.17;;;;;;;-145.69;100.00;52565.19;5129559;28;20229;-85
2023/03/15 02:44:23;;;;;;;7.57;2.87;;;;;;;-145.69;100.00;52573.13;5128414;28;20201;-85
2023/03/15 02:46:52;;;;;;;7.00;2.60;;;;;;;-145.69;100.00;52563.22;5128773;28;20200;-86
2023/03/15 02:49:23;;;;;;;12.43;2.67;;;;;;;-145.69;100.00;52579.06;5130814;28;20296;-86
2023/03/15 02:51:49;;;;;;;5.87;2.60;;;;;;;-145.69;100.00;52575.09;5127866;28;20232;-86
2023/03/15 02:54:16;;;;;;;9.07;2.60;;;;;;;-145.69;100.00;52547.38;5129765;28;20232;-85
2023/03/15 02:56:43;;;;;;;6.60;2.67;;;;;;;-145.69;100.00;52588.97;5128483;28;20223;-86
2023/03/15 02:59:11;;;;;;;11.93;3.00;;;;;;;-145.69;100.00;52573.13;5126185;28;20199;-86
2023/03/15 03:01:39;;;;;;;11.77;3.17;;;;;;;-145.69;100.00;52592.91;5123531;28;20254;-86
2023/03/15 03:04:06;;;;;;;10.90;2.93;;;;;;;-145.69;100.00;52561.22;5120738;28;20750;-86
2023/03/15 03:06:33;;;;;;;18.10;2.97;;;;;;;-145.69;100.00;52569.16;5117739;28;20202;-84
2023/03/15 03:09:03;;;;;;;9.07;2.83;;;;;;;-145.69;100.00;52547.38;5118036;28;20195;-86
2023/03/15 03:11:29;;;;;;;17.53;2.97;;;;;;;-145.69;100.00;52575.09;5118063;28;20312;-86
2023/03/15 03:13:56;;;;;;;18.70;3.20;;;;;;;-145.69;100.00;52583.00;5116717;28;20202;-86
2023/03/15 03:16:22;;;;;;;10.20;2.87;;;;;;;-145.69;100.00;52583.00;5118611;28;20198;-86
2023/03/15 03:18:50;;;;;;;10.93;3.30;;;;;;;-145.69;100.00;52535.47;5123283;28;20197;-85
2023/03/15 03:21:17;;;;;;;15.60;3.40;;;;;;;-145.69;100.00;52563.22;5123869;28;20194;-85
2023/03/15 03:23:45;;;;;;;11.63;3.47;;;;;;;-145.69;100.00;52565.19;5123898;28;20204;-86
2023/03/15 03:26:15;;;;;;;16.17;3.17;;;;;;;-145.69;100.00;52553.31;5125735;28;20198;-85
2023/03/15 03:28:44;;;;;;;16.17;3.67;;;;;;;-145.69;100.00;52614.72;5125644;28;20205;-86
2023/03/15 03:31:17;;;;;;;10.27;3.50;;;;;;;-145.69;100.00;52575.09;5124377;28;20190;-86
2023/03/15 03:33:43;;;;;;;12.67;3.70;;;;;;;-145.69;100.00;52573.13;5124141;28;20198;-85
2023/03/15 03:36:11;;;;;;;7.93;3.30;;;;;;;-145.69;100.00;52575.09;5122319;28;20200;-85
2023/03/15 03:38:39;;;;;;;13.70;3.60;;;;;;;-145.69;100.00;52559.25;5122594;28;20281;-86
2023/03/15 03:41:06;;;;;;;13.10;3.67;;;;;;;-145.69;100.00;52586.97;5122120;28;20251;-86
2023/03/15 03:43:32;;;;;;;13.27;4.33;;;;;;;-145.69;100.00;52608.75;5123632;28;20240;-86
2023/03/15 03:45:59;;;;;;;17.57;3.70;;;;;;;-145.69;100.00;52581.03;5120186;28;20205;-86
2023/03/15 03:48:25;;;;;;;14.33;4.43;;;;;;;-145.69;100.00;52553.31;5120754;28;20200;-86
2023/03/15 03:50:52;;;;;;;15.00;4.83;;;;;;;-145.69;100.00;52551.31;5121076;28;20548;-86
2023/03/15 03:53:20;;;;;;;11.20;4.57;;;;;;;-145.69;100.00;52549.34;5120313;28;20197;-86
2023/03/15 03:55:46;;;;;;;11.83;4.53;;;;;;;-145.69;100.00;52559.25;5119960;28;20205;-86
2023/03/15 03:58:13;;;;;;;19.63;5.07;;;;;;;-145.69;100.00;52539.44;5117389;28;20197;-85
2023/03/15 04:00:40;;;;;;;25.73;5.77;;;;;;;-145.69;100.00;52555.28;5116929;28;20560;-85
2023/03/15 04:03:07;;;;;;;14.90;5.70;;;;;;;-145.69;100.00;52549.34;5115622;28;20683;-85
2023/03/15 04:05:34;;;;;;;13.90;5.93;;;;;;;-145.69;100.00;52551.31;5117235;28;20208;-86
2023/03/15 04:08:00;;;;;;;25.33;5.53;;;;;;;-145.69;100.00;52543.41;5116452;28;20208;-86
2023/03/15 04:10:28;;;;;;;11.97;5.17;;;;;;;-145.69;100.00;52571.13;5116821;28;20198;-86
2023/03/15 04:12:56;;;;;;;12.37;5.47;;;;;;;-145.69;100.00;52559.25;5116296;28;20658;-87
2023/03/15 04:15:24;;;;;;;13.83;4.97;;;;;;;-145.69;100.00;52567.16;5117204;28;20193;-87
2023/03/15 04:17:54;;;;;;;10.40;5.57;;;;;;;-145.69;100.00;52555.28;5116969;28;20597;-87
2023/03/15 04:20:21;;;;;;;11.30;5.03;;;;;;;-145.69;100.00;52559.25;5117958;28;20247;-86
2023/03/15 04:22:48;;;;;;;13.33;5.93;;;;;;;-145.69;100.00;52567.16;5118243;28;20232;-86
2023/03/15 04:25:15;;;;;;;21.13;6.53;;;;;;;-145.69;100.00;52551.31;5118457;28;20202;-89
2023/03/15 04:27:43;;;;;;;17.07;5.30;;;;;;;-145.69;100.00;52588.97;5119029;28;20204;-86
2023/03/15 04:30:11;;;;;;;21.13;6.47;;;;;;;-145.69;100.00;52551.31;5119701;28;20205;-86
2023/03/15 04:32:37;;;;;;;16.33;5.63;;;;;;;-145.69;100.00;52539.44;5122023;28;20284;-86
2023/03/15 04:35:04;;;;;;;14.03;5.27;;;;;;;-145.69;100.00;52571.13;5121269;28;20197;-86
2023/03/15 04:37:31;;;;;;;18.10;5.93;;;;;;;-145.69;100.00;52541.44;5120517;28;20549;-86
2023/03/15 04:39:58;;;;;;;24.77;7.80;;;;;;;-145.69;100.00;52571.13;5120821;28;20207;-89
2023/03/15 04:42:25;;;;;;;14.13;6.23;;;;;;;-145.69;100.00;52543.41;5119054;28;20232;-87
2023/03/15 04:44:53;;;;;;;18.73;5.57;;;;;;;-145.69;100.00;52571.13;5118130;28;20635;-86
2023/03/15 04:47:21;;;;;;;11.47;5.23;;;;;;;-145.69;100.00;52539.44;5118232;28;20197;-86
2023/03/15 04:49:48;;;;;;;20.00;4.47;;;;;;;-145.69;100.00;52567.16;5117230;28;20555;-86
2023/03/15 04:52:14;;;;;;;13.00;5.33;;;;;;;-145.69;100.00;52555.28;5118172;28;20670;-88
2023/03/15 04:54:41;;;;;;;12.20;4.33;;;;;;;-145.69;100.00;52585.00;5118114;28;20293;-88
2023/03/15 04:57:07;;;;;;;10.37;4.13;;;;;;;-145.69;100.00;52551.31;5119817;28;20197;-89
2023/03/15 04:59:34;;;;;;;21.60;5.63;;;;;;;-145.69;100.00;52547.38;5119065;28;20235;-89
2023/03/15 05:02:02;;;;;;;11.67;4.63;;;;;;;-145.69;100.00;52537.47;5100311;28;20253;-86
2023/03/15 05:04:28;;;;;;;19.37;4.57;;;;;;;-145.69;100.00;52575.09;5118748;28;20197;-89
2023/03/15 05:06:55;;;;;;;11.80;4.20;;;;;;;-145.69;100.00;52561.22;5118215;28;20197;-86
2023/03/15 05:09:21;;;;;;;12.33;4.20;;;;;;;-145.69;100.00;52594.91;5117446;28;20198;-87
2023/03/15 05:11:48;;;;;;;12.47;4.10;;;;;;;-145.69;100.00;52507.75;5116216;28;20194;-87
2023/03/15 05:14:15;;;;;;;15.30;4.50;;;;;;;-145.69;100.00;52565.19;5118251;28;20193;-86
2023/03/15 05:16:42;;;;;;;12.60;4.30;;;;;;;-145.69;100.00;52543.41;5117947;28;20196;-86
2023/03/15 05:19:10;;;;;;;15.77;4.90;;;;;;;-145.69;100.00;52561.22;5120102;28;20265;-86
2023/03/15 05:21:36;;;;;;;11.67;4.77;;;;;;;-145.69;100.00;52561.22;5099389;28;20655;-87
2023/03/15 05:24:03;;;;;;;12.23;4.63;;;;;;;-145.69;100.00;52561.22;5117192;28;20231;-86
2023/03/15 05:26:30;;;;;;;15.03;4.80;;;;;;;-145.69;100.00;52588.97;5115352;28;20194;-87
2023/03/15 05:28:56;;;;;;;12.37;4.63;;;;;;;-145.69;100.00;52588.97;5117334;28;20205;-86
2023/03/15 05:31:23;;;;;;;13.67;4.80;;;;;;;-145.69;100.00;52590.94;5117350;28;20235;-87
2023/03/15 05:33:53;;;;;;;23.03;5.10;;;;;;;-145.69;100.00;52575.09;5117614;28;20199;-86
2023/03/15 05:36:21;;;;;;;21.20;5.70;;;;;;;-145.69;100.00;52555.28;5118010;28;20198;-87
2023/03/15 05:38:47;;;;;;;17.07;4.80;;;;;;;-145.69;100.00;52531.53;5116616;28;20686;-87
2023/03/15 05:41:16;;;;;;;17.00;5.43;;;;;;;-145.69;100.00;52529.53;5123104;28;20201;-85
2023/03/15 05:43:43;;;;;;;17.07;5.50;;;;;;;-145.69;100.00;52549.34;5125232;28;20224;-87
2023/03/15 05:46:09;;;;;;;13.97;5.47;;;;;;;-145.69;100.00;52525.59;5123094;28;20200;-87
2023/03/15 05:48:36;;;;;;;16.37;6.23;;;;;;;-145.69;100.00;52602.81;5121858;28;20198;-87
2023/03/15 05:51:03;;;;;;;14.57;5.37;;;;;;;-145.69;100.00;52594.91;5119521;28;20205;-89
2023/03/15 05:53:30;;;;;;;23.37;6.00;;;;;;;-145.69;100.00;52565.19;5119165;28;20205;-88
2023/03/15 05:55:57;;;;;;;14.13;4.93;;;;;;;-145.69;100.00;52577.06;5117985;28;20206;-86
2023/03/15 05:58:24;;;;;;;18.27;5.20;;;;;;;-145.69;100.00;52588.97;5118675;28;20591;-86
2023/03/15 06:00:50;;;;;;;18.50;6.80;;;;;;;-145.69;100.00;52594.91;5115613;28;20521;-89
2023/03/15 06:03:17;;;;;;;16.10;5.33;;;;;;;-145.69;100.00;52543.41;5116484;28;20587;-86
2023/03/15 06:05:43;;;;;;;10.30;4.13;;;;;;;-145.69;100.00;52579.06;5116608;28;20212;-88
2023/03/15 06:08:10;;;;;;;12.50;4.40;;;;;;;-145.69;100.00;52561.22;5116662;28;20229;-88
2023/03/15 06:10:38;;;;;;;12.47;4.27;;;;;;;-145.69;100.00;52559.25;5117384;28;20233;-88
2023/03/15 06:13:05;;;;;;;16.20;4.90;;;;;;;-145.69;100.00;52559.25;5117513;28;20197;-88
2023/03/15 06:15:32;;;;;;;14.10;4.17;;;;;;;-145.69;100.00;52539.44;5117367;28;20197;-88
2023/03/15 06:17:58;;;;;;;16.57;4.83;;;;;;;-145.69;100.00;52557.28;5116951;28;20198;-89
2023/03/15 06:20:25;;;;;;;12.07;4.13;;;;;;;-145.69;100.00;52573.13;5115268;28;20197;-89
2023/03/15 06:22:51;;;;;;;15.93;4.50;;;;;;;-145.69;100.00;52594.91;5114991;28;20225;-88
2023/03/15 06:25:18;;;;;;;11.37;4.27;;;;;;;-145.69;100.00;52583.00;5117801;28;20570;-88
2023/03/15 06:27:46;;;;;;;11.93;4.00;;;;;;;-145.69;100.00;52583.00;5121308;28;20265;-86
2023/03/15 06:30:13;;;;;;;9.53;3.70;;;;;;;-145.69;100.00;52563.22;5122113;28;20200;-86
2023/03/15 06:32:40;;;;;;;9.10;3.53;;;;;;;-145.69;100.00;52545.38;5122306;28;20212;-87
2023/03/15 06:35:07;;;;;;;15.27;4.40;;;;;;;-145.69;100.00;52575.09;5122522;28;20628;-88
2023/03/15 06:37:35;;;;;;;19.63;4.80;;;;;;;-145.69;100.00;52569.16;5122657;28;20202;-87
2023/03/15 06:40:03;;;;;;;16.40;4.37;;;;;;;-145.69;100.00;52571.13;5121867;28;20205;-88
2023/03/15 06:42:29;;;;;;;14.37;5.23;;;;;;;-145.69;100.00;52586.97;5122650;28;20594;-85
2023/03/15 06:44:57;;;;;;;24.93;5.00;;;;;;;-145.69;100.00;52561.22;5121578;28;20516;-87
2023/03/15 06:47:24;;;;;;;11.60;4.23;;;;;;;-145.69;100.00;52571.13;5118571;28;20204;-87
2023/03/15 06:49:50;;;;;;;14.27;4.47;;;;;;;-145.69;100.00;52571.13;5118670;28;20201;-87
2023/03/15 06:52:17;;;;;;;9.40;3.93;;;;;;;-145.69;100.00;52583.00;5118586;28;20200;-88
2023/03/15 06:54:43;;;;;;;15.37;4.90;;;;;;;-145.69;100.00;52583.00;5118838;28;20197;-88
2023/03/15 06:57:10;;;;;;;18.47;4.67;;;;;;;-145.69;100.00;52557.28;5121327;28;20193;-88
2023/03/15 06:59:37;;;;;;;14.50;4.77;;;;;;;-145.69;100.00;52563.22;5122607;28;20551;-88
2023/03/15 07:02:05;;;;;;;20.07;5.13;;;;;;;-145.69;100.00;52551.31;5122708;28;20205;-88
2023/03/15 07:04:31;;;;;;;13.07;3.97;;;;;;;-145.69;100.00;52579.06;5120993;28;20552;-88
2023/03/15 07:06:58;;;;;;;15.93;4.60;;;;;;;-145.69;100.00;52563.22;5120277;28;20201;-88
2023/03/15 07:09:25;;;;;;;18.27;4.57;;;;;;;-145.69;100.00;52575.09;5119030;28;20200;-88
2023/03/15 07:11:51;;;;;;;17.70;3.63;;;;;;;-145.69;100.00;52588.97;5119973;28;20648;-88
2023/03/15 07:14:18;;;;;;;13.90;3.97;;;;;;;-145.69;100.00;52586.97;5119209;28;20280;-86
2023/03/15 07:16:44;;;;;;;11.97;3.90;;;;;;;-145.69;100.00;52555.28;5119860;28;20201;-88
2023/03/15 07:19:12;;;;;;;11.23;3.63;;;;;;;-145.69;100.00;52561.22;5120503;28;20284;-86
2023/03/15 07:21:38;;;;;;;9.03;2.97;;;;;;;-145.69;100.00;52563.22;5121139;28;20200;-88
2023/03/15 07:24:05;;;;;;;13.73;3.23;;;;;;;-145.69;100.00;52573.13;5121795;28;20223;-88
2023/03/15 07:26:32;;;;;;;13.23;2.70;;;;;;;-145.69;100.00;52559.25;5131338;28;20229;-85
2023/03/15 07:28:59;;;;;;;12.98;4.07;;;;;;;-145.69;100.00;52533.50;5131617;28;20435;-88
2023/03/15 07:31:25;;;;;;;11.80;3.13;;;;;;;-145.69;100.00;52577.06;5134561;28;20266;-87
2023/03/15 07:33:52;;;;;;;7.73;2.60;;;;;;;-145.69;100.00;52553.31;5133956;28;20202;-86
2023/03/15 07:36:21;;;;;;;8.03;2.70;;;;;;;-145.69;100.00;52547.38;5122648;28;20552;-85
2023/03/15 07:38:47;;;;;;;6.70;2.63;;;;;;;-145.69;100.00;52527.56;5121121;28;20228;-85
2023/03/15 07:41:14;;;;;;;8.97;2.50;;;;;;;-145.69;100.00;52553.31;5117642;28;20224;-84
2023/03/15 07:43:41;;;;;;;10.13;2.60;;;;;;;-145.69;100.00;52586.97;5116274;28;20244;-87
2023/03/15 07:46:07;;;;;;;9.97;2.77;;;;;;;-145.69;100.00;52559.25;5116247;28;20194;-87
2023/03/15 07:48:34;;;;;;;7.73;2.10;;;;;;;-145.69;100.00;52523.59;5116388;28;20686;-84
2023/03/15 07:51:00;;;;;;;7.43;2.13;;;;;;;-145.69;100.00;52547.38;5116991;28;20197;-84
2023/03/15 07:53:28;;;;;;;5.47;1.67;;;;;;;-145.69;100.00;52515.69;5118961;28;20259;-84
2023/03/15 07:55:55;;;;;;;7.37;1.80;;;;;;;-145.69;100.00;52541.44;5119056;28;20203;-84
2023/03/15 07:58:21;;;;;;;6.97;1.73;;;;;;;-145.69;100.00;52573.13;5118262;28;20431;-84
2023/03/15 08:00:48;;;;;;;3.50;1.53;;;;;;;-145.69;100.00;52547.38;5121678;28;20203;-84
2023/03/15 08:03:14;;;;;;;5.87;1.60;;;;;;;-145.69;100.00;52543.41;5122319;28;20225;-86
2023/03/15 08:05:41;;;;;;;5.40;1.43;;;;;;;-145.69;100.00;52555.28;5120098;28;20197;-86
2023/03/15 08:08:07;;;;;;;3.97;1.60;;;;;;;-145.69;100.00;52571.13;5123046;28;20201;-85
2023/03/15 08:10:35;;;;;;;8.00;1.90;;;;;;;-145.69;100.00;52539.44;5125452;28;20203;-85
2023/03/15 08:13:02;;;;;;;8.90;1.80;;;;;;;-145.69;100.00;52539.44;5121984;28;20205;-85
2023/03/15 08:15:28;;;;;;;9.80;1.73;;;;;;;-145.69;100.00;52543.41;5119370;28;20193;-87
2023/03/15 08:17:55;;;;;;;6.93;1.60;;;;;;;-145.69;100.00;52549.34;5119701;28;20197;-86
2023/03/15 08:20:21;;;;;;;7.37;1.40;;;;;;;-145.69;100.00;52480.03;5127912;28;20202;-87
2023/03/15 08:22:50;;;;;;;8.97;1.93;;;;;;;-145.69;100.00;52543.41;5120591;28;20652;-87
2023/03/15 08:25:18;;;;;;;4.90;1.70;;;;;;;-145.69;100.00;52527.56;5120033;28;20296;-86
2023/03/15 08:27:46;;;;;;;3.93;1.80;;;;;;;-145.69;100.00;52565.19;5123227;28;20189;-86
2023/03/15 08:30:14;;;;;;;5.73;1.70;;;;;;;-145.69;100.00;52531.53;5125974;28;20208;-87
2023/03/15 08:32:41;;;;;;;6.13;2.03;;;;;;;-145.69;100.00;52551.31;5125742;28;20655;-88
2023/03/15 08:35:11;;;;;;;4.33;1.70;;;;;;;-145.69;100.00;52559.25;5128949;28;20628;-88
2023/03/15 08:37:38;;;;;;;5.70;1.97;;;;;;;-145.69;100.00;52557.28;5129893;28;20205;-87
2023/03/15 08:40:07;;;;;;;4.83;1.47;;;;;;;-145.69;100.00;52557.28;5123378;28;20201;-87
2023/03/15 08:42:33;;;;;;;3.53;1.70;;;;;;;-145.69;100.00;52539.44;5120417;28;20656;-84
2023/03/15 08:45:01;;;;;;;2.80;1.23;;;;;;;-145.69;100.00;52535.47;5118040;28;20221;-89
2023/03/15 08:47:28;;;;;;;4.23;1.43;;;;;;;-145.69;100.00;52531.53;5115725;28;20193;-86
2023/03/15 08:49:54;;;;;;;5.73;1.53;;;;;;;-145.69;100.00;52541.44;5115652;28;20620;-85
2023/03/15 08:52:21;;;;;;;2.40;0.93;;;;;;;-145.69;100.00;52537.47;5115465;28;20205;-87
2023/03/15 08:54:48;;;;;;;3.00;1.13;;;;;;;-145.69;100.00;52493.91;5115085;28;20201;-85
2023/03/15 08:57:15;;;;;;;4.80;1.10;;;;;;;-145.69;100.00;52561.22;5113790;28;20201;-85
2023/03/15 08:59:41;;;;;;;2.20;1.40;;;;;;;-145.69;100.00;52529.53;5115392;28;20200;-86
2023/03/15 09:02:11;;;;;;;7.13;1.10;;;;;;;-145.69;100.00;52521.63;5118473;28;20197;-86
2023/03/15 09:04:37;;;;;;;1.27;0.90;;;;;;;-145.69;100.00;52539.44;5117189;28;20232;-87
2023/03/15 09:07:04;;;;;;;1.90;0.93;;;;;;;-145.69;100.00;52527.56;5116821;28;20205;-86
2023/03/15 09:09:32;;;;;;;3.80;1.00;;;;;;;-145.69;100.00;52499.84;5113722;28;20193;-85
2023/03/15 09:11:58;;;;;;;3.70;0.93;;;;;;;-145.69;100.00;52531.53;5101338;28;20201;-87
2023/03/15 09:14:25;;;;;;;3.07;1.17;;;;;;;-145.69;100.00;52551.31;5096160;28;20679;-87
2023/03/15 09:16:52;;;;;;;3.63;1.20;;;;;;;-145.69;100.00;52541.44;5096540;28;20205;-87
2023/03/15 09:19:20;;;;;;;2.07;1.30;;;;;;;-145.69;100.00;52531.53;5099207;28;20209;-86
2023/03/15 09:21:47;;;;;;;3.17;0.93;;;;;;;-145.69;100.00;52547.38;5098424;28;20237;-87
2023/03/15 09:24:13;;;;;;;2.07;1.20;;;;;;;-145.69;100.00;52527.56;5105679;28;20227;-86
2023/03/15 09:26:40;;;;;;;3.47;1.10;;;;;;;-145.69;96.59;52547.38;5114369;28;20272;-86
2023/03/15 09:29:08;;;;;;;2.87;0.90;;;;;;;-145.69;99.66;52535.47;5115985;28;20644;-85
2023/03/15 09:31:35;;;;;;;4.40;1.03;;;;;;;-145.69;100.00;52531.53;5115714;28;20738;-87
2023/03/15 09:34:02;;;;;;;2.33;1.00;;;;;;;-145.69;100.00;52547.38;5114765;28;20441;-88
2023/03/15 09:36:30;;;;;;;2.83;1.30;;;;;;;-145.69;100.00;52515.69;5114295;28;20301;-86
2023/03/15 09:38:57;;;;;;;2.17;1.07;;;;;;;-145.69;100.00;52529.53;5115175;28;20663;-87
2023/03/15 09:41:39;;;;;;;1.10;0.90;;;;;;;-145.69;93.24;52517.66;5114690;28;20231;-85
2023/03/15 09:44:16;;;;;;;1.97;0.90;;;;;;;-145.69;99.14;52515.69;5113212;28;20229;-82
2023/03/15 09:46:56;;;;;;;1.80;0.80;;;;;;;-145.69;95.54;52529.53;5107725;28;20224;-88
2023/03/15 09:49:37;;;;;;;2.57;1.00;;;;;;;-145.69;93.38;52511.72;5113119;28;20205;-85
2023/03/15 09:52:15;;;;;;;0.93;0.70;;;;;;;-145.69;89.27;52501.81;5113204;28;20201;-84
2023/03/15 09:54:46;;;;;;;1.23;1.00;;;;;;;-145.69;91.91;52517.66;5107205;28;20193;-81
2023/03/15 09:57:18;;;;;;;2.57;0.87;;;;;;;-145.69;96.51;52527.56;5114279;28;20207;-83
2023/03/15 09:59:50;;;;;;;2.37;1.07;;;;;;;-145.69;90.38;52551.31;5136412;27;20220;-86
2023/03/15 10:02:23;;;;;;;1.83;1.10;;;;;;;-145.69;97.90;52551.31;5145281;27;20196;-85
2023/03/15 10:04:54;;;;;;;1.90;0.73;;;;;;;-145.69;100.00;52527.56;5142107;27;20237;-85
2023/03/15 10:07:22;;;;;;;3.10;1.10;;;;;;;-145.69;98.69;52497.84;5140133;27;20201;-88
2023/03/15 10:09:48;;;;;;;2.43;1.00;;;;;;;-145.69;99.20;52511.72;5139014;27;20199;-87
2023/03/15 10:12:20;;;;;;;3.43;1.30;;;;;;;-145.69;94.68;52456.28;5138807;27;20196;-86
2023/03/15 10:15:03;;;;;;;1.43;1.23;;;;;;;-145.69;96.36;52531.53;5138560;27;20201;-83
2023/03/15 10:17:38;;;;;;;5.13;1.20;;;;;;;-145.69;88.94;52537.47;5121104;27;20189;-85
2023/03/15 10:20:11;;;;;;;2.37;1.20;;;;;;;-145.69;100.00;52525.59;5139995;27;20200;-84
2023/03/15 10:22:44;;;;;;;5.30;1.37;;;;;;;-145.69;97.25;52511.72;5138854;27;20197;-83
2023/03/15 10:25:17;;;;;;;3.67;1.30;;;;;;;-145.69;98.19;52511.72;5131577;27;20225;-85
2023/03/15 10:27:48;;;;;;;1.60;1.17;;;;;;;-145.69;100.00;52535.47;5117017;28;20189;-84
2023/03/15 10:30:17;;;;;;;3.83;1.27;;;;;;;-145.69;96.41;52505.78;5117601;28;20233;-83
2023/03/15 10:32:47;;;;;;;3.70;1.67;;;;;;;-145.69;100.00;52499.84;5120321;27;20595;-84
2023/03/15 10:35:16;;;;;;;2.20;1.13;;;;;;;-145.69;100.00;52482.00;5137877;27;20200;-83
2023/03/15 10:37:44;;;;;;;3.63;1.67;;;;;;;-145.69;92.52;52478.06;5127119;27;20189;-84
2023/03/15 10:40:15;;;;;;;2.07;1.20;;;;;;;-145.69;100.00;52541.44;5116905;28;20201;-84
2023/03/15 10:42:43;;;;;;;1.73;1.23;;;;;;;-145.69;95.88;52515.69;5118117;28;20225;-84
2023/03/15 10:45:21;;;;;;;3.63;1.50;;;;;;;-145.69;100.00;52491.91;5120530;28;20229;-82
2023/03/15 10:47:48;;;;;;;3.77;1.23;;;;;;;-145.69;99.45;52523.59;5098816;28;20198;-81
2023/03/15 10:50:18;;;;;;;2.23;1.53;;;;;;;-145.69;89.79;52499.84;5116614;28;20296;-82
2023/03/15 10:52:46;;;;;;;4.03;1.13;;;;;;;-145.69;90.07;52474.09;5116382;28;20208;-83
2023/03/15 10:55:15;;;;;;;6.20;1.47;;;;;;;-145.69;90.06;52509.75;5117204;28;20208;-83
2023/03/15 10:57:52;;;;;;;2.87;1.50;;;;;;;-145.69;74.83;52491.91;5116789;28;20213;-85
2023/03/15 11:00:25;;;;;;;3.60;0.93;;;;;;;-145.69;74.98;52497.84;5117350;28;20212;-82
2023/03/15 11:03:01;;;;;;;1.13;1.00;;;;;;;-145.69;78.70;52480.03;5119649;27;20193;-82
2023/03/15 11:05:31;;;;;;;5.60;1.53;;;;;;;-145.69;74.35;52487.97;5130418;27;20224;-84
2023/03/15 11:08:00;;;;;;;3.73;1.20;;;;;;;-145.69;79.26;52484.00;5116547;27;20201;-82
2023/03/15 11:10:29;;;;;;;0.80;0.80;;;;;;;-145.69;71.10;52499.84;5116162;28;20602;-82